Time;durP1;ratioP1;P1;durP2;ratioP2;P2;SDS_P1;SDS_P2;PMS_P1;PMS_P2;Temp;Humidity;BMP_temperature;BMP_pressure;BME280_temperature;BME280_humidity;BME280_pressure;Samples;Min_cycle;Max_cycle;Signal;HPM_P1;HPM_P2
2021/05/15 00:00:20;;;;;;;19.65;10.50;;;9.00;99.90;;;;;;5043688;28;20090;-82
2021/05/15 00:02:46;;;;;;;21.45;11.20;;;9.00;99.90;;;;;;5027959;28;20087;-82
2021/05/15 00:05:12;;;;;;;21.00;10.48;;;9.00;99.90;;;;;;5046560;28;20447;-83
2021/05/15 00:07:37;;;;;;;24.60;11.13;;;8.90;99.90;;;;;;5044049;28;20537;-83
2021/05/15 00:10:05;;;;;;;20.40;10.65;;;8.80;99.90;;;;;;5040951;28;20796;-83
2021/05/15 00:12:31;;;;;;;20.48;10.90;;;8.80;99.90;;;;;;5047360;28;20035;-82
2021/05/15 00:14:57;;;;;;;20.25;10.07;;;8.80;99.90;;;;;;5047263;28;20578;-84
2021/05/15 00:17:23;;;;;;;21.92;10.70;;;8.70;99.90;;;;;;5047616;28;20037;-82
2021/05/15 00:19:49;;;;;;;20.80;11.05;;;8.70;99.90;;;;;;5044319;28;20037;-82
2021/05/15 00:22:16;;;;;;;21.25;10.57;;;8.80;99.90;;;;;;5045942;28;20033;-82
2021/05/15 00:24:42;;;;;;;19.25;11.00;;;8.80;99.90;;;;;;5050982;28;20080;-82
2021/05/15 00:27:08;;;;;;;19.95;11.60;;;8.80;99.90;;;;;;5047824;28;20045;-83
2021/05/15 00:29:33;;;;;;;23.73;11.55;;;8.80;99.90;;;;;;5045412;28;20041;-83
2021/05/15 00:31:59;;;;;;;20.83;10.77;;;8.80;99.90;;;;;;5054962;28;20059;-82
2021/05/15 00:34:24;;;;;;;23.20;11.48;;;8.80;99.90;;;;;;5045285;28;20079;-83
2021/05/15 00:36:50;;;;;;;19.40;12.02;;;8.90;99.90;;;;;;5038689;28;20033;-83
2021/05/15 00:39:17;;;;;;;25.52;12.68;;;8.90;99.90;;;;;;5047306;28;20044;-83
2021/05/15 00:41:43;;;;;;;27.20;11.98;;;9.00;99.90;;;;;;5044512;28;20048;-84
2021/05/15 00:44:43;;;;;;;24.73;12.57;;;9.00;99.90;;;;;;5047012;28;20463;-83
2021/05/15 00:46:57;;;;;;;21.30;11.82;;;9.10;99.90;;;;;;5045186;28;20091;-83
2021/05/15 00:49:22;;;;;;;19.20;11.25;;;9.10;99.90;;;;;;5043779;28;20042;-83
2021/05/15 00:51:49;;;;;;;17.25;11.50;;;9.20;99.90;;;;;;5045154;28;20074;-83
2021/05/15 00:54:14;;;;;;;22.65;11.15;;;9.20;99.90;;;;;;5047369;28;20037;-83
2021/05/15 00:56:41;;;;;;;23.77;13.18;;;9.30;99.90;;;;;;5049676;28;20148;-84
2021/05/15 00:59:06;;;;;;;22.92;12.23;;;9.30;99.90;;;;;;5047899;28;20029;-83
2021/05/15 01:01:32;;;;;;;21.88;11.35;;;9.30;99.90;;;;;;5050014;28;20032;-83
2021/05/15 01:03:58;;;;;;;24.90;11.43;;;9.40;99.90;;;;;;5065498;28;20033;-83
2021/05/15 01:06:24;;;;;;;21.63;11.10;;;9.40;99.90;;;;;;5049179;28;20056;-83
2021/05/15 01:08:50;;;;;;;21.48;11.60;;;9.40;99.90;;;;;;5049607;28;20476;-83
2021/05/15 01:11:18;;;;;;;20.45;11.32;;;9.40;99.90;;;;;;5049401;28;20037;-83
2021/05/15 01:13:56;;;;;;;19.38;10.38;;;9.40;99.90;;;;;;5046822;28;20040;-83
2021/05/15 01:16:22;;;;;;;19.70;11.75;;;9.50;99.90;;;;;;5049588;28;20143;-84
2021/05/15 01:18:47;;;;;;;24.73;12.45;;;9.40;99.90;;;;;;5064464;28;20121;-83
2021/05/15 01:21:13;;;;;;;20.17;11.48;;;9.50;99.90;;;;;;5050275;28;20465;-83
2021/05/15 01:23:39;;;;;;;23.15;11.43;;;9.50;99.90;;;;;;5048069;28;20116;-83
2021/05/15 01:26:13;;;;;;;24.15;11.82;;;9.50;99.90;;;;;;5051921;28;20134;-84
2021/05/15 01:28:39;;;;;;;23.45;12.77;;;9.50;99.90;;;;;;5047260;28;20044;-83
2021/05/15 01:31:05;;;;;;;18.17;11.32;;;9.50;99.90;;;;;;5045838;28;20037;-83
2021/05/15 01:33:31;;;;;;;20.80;11.93;;;9.50;99.90;;;;;;5050136;28;20033;-85
2021/05/15 01:35:56;;;;;;;23.98;11.88;;;9.40;99.90;;;;;;5047276;28;20534;-83
2021/05/15 01:38:22;;;;;;;25.10;12.45;;;9.40;99.90;;;;;;5043813;28;20037;-83
2021/05/15 01:40:48;;;;;;;21.70;11.95;;;9.40;99.90;;;;;;5059925;28;20033;-82
2021/05/15 01:43:22;;;;;;;26.27;12.75;;;9.30;99.90;;;;;;5052408;28;20037;-82
2021/05/15 01:45:47;;;;;;;25.45;12.43;;;9.30;99.90;;;;;;5051400;28;20051;-83
2021/05/15 01:48:17;;;;;;;25.92;12.55;;;9.30;99.90;;;;;;5041454;28;20492;-83
2021/05/15 01:50:56;;;;;;;20.58;11.77;;;9.20;99.90;;;;;;5044086;28;20041;-83
2021/05/15 01:53:23;;;;;;;22.83;12.65;;;9.20;99.90;;;;;;5045593;28;20029;-83
2021/05/15 01:55:49;;;;;;;23.75;11.68;;;9.20;99.90;;;;;;5039827;28;20033;-82
2021/05/15 01:58:14;;;;;;;27.42;12.23;;;9.20;99.90;;;;;;5047696;28;20120;-83
2021/05/15 02:00:40;;;;;;;21.90;12.40;;;9.20;99.90;;;;;;5050477;28;20120;-83
2021/05/15 02:03:05;;;;;;;25.75;11.27;;;9.10;99.90;;;;;;5046900;28;20029;-82
2021/05/15 02:05:31;;;;;;;21.20;12.02;;;9.20;99.90;;;;;;5048241;28;20045;-82
2021/05/15 02:07:57;;;;;;;26.00;13.10;;;9.20;99.90;;;;;;5056917;28;20060;-82
2021/05/15 02:10:22;;;;;;;22.15;11.90;;;9.20;99.90;;;;;;5052415;28;20049;-83
2021/05/15 02:12:48;;;;;;;26.63;12.57;;;9.20;99.90;;;;;;5053467;28;20036;-83
2021/05/15 02:15:14;;;;;;;26.05;13.23;;;9.30;99.90;;;;;;5050804;28;20029;-82
2021/05/15 02:17:39;;;;;;;24.42;12.32;;;9.30;99.90;;;;;;5047489;28;20047;-82
2021/05/15 02:20:06;;;;;;;27.70;13.73;;;9.30;99.90;;;;;;5055289;28;20029;-83
2021/05/15 02:22:31;;;;;;;33.35;14.85;;;9.40;99.90;;;;;;5053939;28;20045;-83
2021/05/15 02:24:57;;;;;;;28.13;13.98;;;9.40;99.90;;;;;;5058711;28;20485;-83
2021/05/15 02:27:23;;;;;;;25.75;13.35;;;9.40;99.90;;;;;;5047590;28;20033;-83
2021/05/15 02:29:48;;;;;;;29.30;13.88;;;9.30;99.90;;;;;;5053103;28;20045;-82
2021/05/15 02:32:14;;;;;;;25.13;12.80;;;9.30;99.90;;;;;;5062511;28;20044;-83
2021/05/15 02:34:39;;;;;;;27.65;13.77;;;9.30;99.90;;;;;;5061298;28;20040;-83
2021/05/15 02:37:05;;;;;;;31.52;14.10;;;9.30;99.90;;;;;;5063564;28;20060;-83
2021/05/15 02:39:31;;;;;;;30.75;14.10;;;9.30;99.90;;;;;;5060677;28;20050;-83
2021/05/15 02:41:56;;;;;;;31.73;14.80;;;9.30;99.90;;;;;;5069501;28;20046;-82
2021/05/15 02:44:22;;;;;;;24.08;12.27;;;9.30;99.90;;;;;;5057838;28;20028;-82
2021/05/15 02:46:47;;;;;;;25.85;13.65;;;9.30;99.90;;;;;;5064911;28;20023;-82
2021/05/15 02:49:13;;;;;;;30.60;13.18;;;9.20;99.90;;;;;;5046101;28;20033;-83
2021/05/15 02:51:39;;;;;;;27.75;13.20;;;9.30;99.90;;;;;;5048855;28;20032;-83
2021/05/15 02:54:05;;;;;;;27.73;12.85;;;9.30;99.90;;;;;;5033864;28;20033;-83
2021/05/15 02:56:30;;;;;;;33.40;13.68;;;9.30;99.90;;;;;;5041130;28;20076;-82
2021/05/15 02:58:56;;;;;;;23.40;13.05;;;9.30;99.90;;;;;;5046765;28;20033;-83
2021/05/15 03:01:21;;;;;;;23.67;13.32;;;9.30;99.90;;;;;;5048067;28;20037;-82
2021/05/15 03:03:47;;;;;;;28.20;12.88;;;9.30;99.90;;;;;;5055796;28;20055;-82
2021/05/15 03:06:13;;;;;;;25.70;13.60;;;9.30;99.90;;;;;;5046813;28;20056;-83
2021/05/15 03:08:38;;;;;;;23.90;13.10;;;9.30;99.90;;;;;;5044004;28;20037;-83
2021/05/15 03:11:04;;;;;;;23.52;12.75;;;9.30;99.90;;;;;;5047310;28;20033;-83
2021/05/15 03:13:29;;;;;;;28.75;13.82;;;9.30;99.90;;;;;;5047866;28;20097;-83
2021/05/15 03:15:55;;;;;;;27.63;12.73;;;9.30;99.90;;;;;;5047913;28;20063;-82
2021/05/15 03:18:21;;;;;;;29.48;12.77;;;9.30;99.90;;;;;;5045454;28;20061;-83
2021/05/15 03:20:46;;;;;;;26.70;13.13;;;9.20;99.90;;;;;;5048807;28;20509;-83
2021/05/15 03:23:13;;;;;;;25.55;12.75;;;9.20;99.90;;;;;;5046721;28;20440;-83
2021/05/15 03:25:38;;;;;;;25.00;13.18;;;9.20;99.90;;;;;;5047041;28;20098;-83
2021/05/15 03:28:04;;;;;;;25.92;12.55;;;9.20;99.90;;;;;;5051410;28;20041;-83
2021/05/15 03:30:30;;;;;;;26.50;13.40;;;9.20;99.90;;;;;;5046743;28;20037;-82
2021/05/15 03:32:55;;;;;;;21.98;12.38;;;9.20;99.90;;;;;;5045465;28;20040;-82
2021/05/15 03:35:21;;;;;;;23.15;11.98;;;9.20;99.90;;;;;;5042970;28;20048;-82
2021/05/15 03:37:47;;;;;;;29.35;13.68;;;9.20;99.90;;;;;;5053192;28;20404;-83
2021/05/15 03:40:13;;;;;;;23.50;12.02;;;9.20;99.90;;;;;;5046670;28;20045;-83
2021/05/15 03:42:39;;;;;;;26.98;13.38;;;9.30;99.90;;;;;;5051227;28;20469;-82
2021/05/15 03:45:07;;;;;;;24.10;12.88;;;9.30;99.90;;;;;;5046756;28;20135;-82
2021/05/15 03:47:33;;;;;;;22.45;11.90;;;9.30;99.90;;;;;;5062466;28;20044;-82
2021/05/15 03:49:59;;;;;;;23.90;12.90;;;9.30;99.90;;;;;;5028266;28;20028;-84
2021/05/15 03:52:24;;;;;;;25.38;12.80;;;9.30;99.90;;;;;;5047424;28;20499;-82
2021/05/15 03:54:50;;;;;;;23.33;13.07;;;9.30;99.90;;;;;;5047021;28;20052;-83
2021/05/15 03:57:15;;;;;;;30.83;12.18;;;9.30;99.90;;;;;;5046069;28;20052;-82
2021/05/15 03:59:41;;;;;;;25.05;13.05;;;9.30;99.90;;;;;;5048150;28;20033;-82
2021/05/15 04:02:07;;;;;;;26.13;12.77;;;9.30;99.90;;;;;;5046218;28;20041;-82
2021/05/15 04:04:34;;;;;;;22.92;13.05;;;9.30;99.90;;;;;;5052076;28;20097;-83
2021/05/15 04:07:00;;;;;;;22.58;12.00;;;9.40;99.90;;;;;;5046163;28;20121;-83
2021/05/15 04:09:25;;;;;;;26.98;12.57;;;9.40;99.90;;;;;;5046285;28;20048;-82
2021/05/15 04:11:51;;;;;;;24.15;12.73;;;9.40;99.90;;;;;;5045115;28;20038;-83
2021/05/15 04:19:48;;;;;;;;;;;9.40;99.90;;;;;;5002768;28;20045;-82
2021/05/15 04:22:14;;;;;;;25.23;12.88;;;9.40;99.90;;;;;;5032589;28;19916;-83
2021/05/15 04:24:39;;;;;;;29.05;13.32;;;9.40;99.90;;;;;;5055838;28;20491;-82
2021/05/15 04:27:05;;;;;;;23.05;11.27;;;9.40;99.90;;;;;;5038669;28;20108;-83
2021/05/15 04:29:32;;;;;;;23.00;11.68;;;9.40;99.90;;;;;;5045370;28;20086;-82
2021/05/15 04:31:58;;;;;;;23.00;13.00;;;9.40;99.90;;;;;;5050735;28;20040;-83
2021/05/15 04:34:25;;;;;;;27.33;12.32;;;9.40;99.90;;;;;;5050859;28;20041;-83
2021/05/15 04:36:51;;;;;;;22.75;11.95;;;9.40;99.90;;;;;;5049998;28;20033;-84
2021/05/15 04:39:17;;;;;;;25.92;12.52;;;9.40;99.90;;;;;;5050121;28;20029;-83
2021/05/15 04:41:43;;;;;;;20.70;12.18;;;9.40;99.90;;;;;;5064390;28;20073;-83
2021/05/15 04:44:09;;;;;;;21.15;13.65;;;9.40;99.90;;;;;;5057244;28;20041;-83
2021/05/15 04:46:35;;;;;;;26.80;12.98;;;9.50;99.90;;;;;;5038612;28;20416;-82
2021/05/15 04:49:01;;;;;;;20.48;12.07;;;9.40;99.90;;;;;;5048966;28;20089;-82
2021/05/15 04:51:26;;;;;;;22.25;12.95;;;9.50;99.90;;;;;;5049961;28;20535;-83
2021/05/15 04:53:52;;;;;;;20.20;11.65;;;9.50;99.90;;;;;;5050562;28;20032;-82
2021/05/15 04:56:18;;;;;;;25.38;12.73;;;9.50;99.90;;;;;;5048935;28;20033;-82
2021/05/15 04:58:44;;;;;;;23.73;12.82;;;9.50;99.90;;;;;;5047099;28;20033;-82
2021/05/15 05:01:10;;;;;;;23.63;12.80;;;9.50;99.90;;;;;;5053994;28;20047;-82
2021/05/15 05:03:36;;;;;;;23.33;11.05;;;9.60;99.90;;;;;;5046652;28;20045;-82
2021/05/15 05:06:05;;;;;;;25.80;13.27;;;9.60;99.90;;;;;;5053287;28;20044;-82
2021/05/15 05:08:30;;;;;;;25.17;13.40;;;9.70;99.90;;;;;;5062114;28;20084;-82
2021/05/15 05:10:56;;;;;;;25.65;12.68;;;9.70;99.90;;;;;;5048454;28;20068;-84
2021/05/15 05:13:22;;;;;;;25.52;11.73;;;9.80;99.90;;;;;;5045956;28;20047;-83
2021/05/15 05:15:48;;;;;;;23.35;12.57;;;9.80;99.90;;;;;;5050019;28;20387;-83
2021/05/15 05:18:14;;;;;;;22.38;11.93;;;9.80;99.90;;;;;;5057060;28;20368;-83
2021/05/15 05:20:40;;;;;;;24.42;13.38;;;9.80;99.90;;;;;;5043520;28;20044;-83
2021/05/15 05:23:06;;;;;;;26.67;11.82;;;9.80;99.90;;;;;;5032983;28;20021;-83
2021/05/15 05:25:32;;;;;;;25.90;13.52;;;9.80;99.90;;;;;;5044824;28;20096;-82
2021/05/15 05:27:58;;;;;;;24.23;13.30;;;9.80;99.90;;;;;;5053702;28;20443;-82
2021/05/15 05:30:24;;;;;;;24.88;13.45;;;9.80;99.90;;;;;;5049276;28;20040;-83
2021/05/15 05:32:50;;;;;;;23.25;12.18;;;9.70;99.90;;;;;;5049027;28;20024;-83
2021/05/15 05:35:17;;;;;;;21.80;12.55;;;9.70;99.90;;;;;;5056377;28;20032;-83
2021/05/15 05:37:43;;;;;;;20.27;12.15;;;9.70;99.90;;;;;;5032597;28;20134;-83
2021/05/15 05:40:11;;;;;;;22.55;12.07;;;9.60;99.90;;;;;;5052991;28;20468;-85
2021/05/15 05:42:40;;;;;;;26.63;12.70;;;9.60;99.90;;;;;;5049572;28;20524;-83
2021/05/15 05:45:12;;;;;;;22.38;12.02;;;9.60;99.90;;;;;;5050220;28;20048;-84
2021/05/15 05:47:38;;;;;;;21.40;12.05;;;9.60;99.90;;;;;;5045960;28;20179;-83
2021/05/15 05:50:06;;;;;;;25.15;12.98;;;9.50;99.90;;;;;;5051310;28;20029;-84
2021/05/15 05:52:33;;;;;;;27.17;13.15;;;9.50;99.90;;;;;;5051594;28;20087;-84
2021/05/15 05:54:59;;;;;;;27.13;12.65;;;9.50;99.90;;;;;;5057208;28;20038;-84
2021/05/15 05:57:24;;;;;;;23.52;14.07;;;9.50;99.90;;;;;;5051064;28;20575;-84
2021/05/15 05:59:50;;;;;;;24.50;13.02;;;9.50;99.90;;;;;;5055672;28;20094;-84
2021/05/15 06:02:15;;;;;;;21.27;11.52;;;9.50;99.90;;;;;;5052115;28;20044;-83
2021/05/15 06:04:41;;;;;;;27.50;12.23;;;9.40;99.90;;;;;;5050350;28;20049;-83
2021/05/15 06:07:07;;;;;;;29.15;13.20;;;9.50;99.90;;;;;;5051582;28;20480;-83
2021/05/15 06:09:34;;;;;;;29.55;13.30;;;9.50;99.90;;;;;;5047744;28;20519;-82
2021/05/15 06:12:00;;;;;;;25.80;12.38;;;9.60;99.90;;;;;;5040479;28;20177;-83
2021/05/15 06:14:26;;;;;;;29.08;14.35;;;9.60;99.90;;;;;;5051106;28;20036;-82
2021/05/15 06:16:51;;;;;;;27.30;13.68;;;9.60;99.90;;;;;;5049482;28;20468;-83
2021/05/15 06:19:17;;;;;;;28.30;14.70;;;9.60;99.90;;;;;;5050683;28;20531;-82
2021/05/15 06:21:43;;;;;;;26.35;12.95;;;9.60;99.90;;;;;;5056234;28;20033;-82
2021/05/15 06:24:10;;;;;;;23.45;12.75;;;9.60;99.90;;;;;;5048245;28;20041;-83
2021/05/15 06:26:36;;;;;;;26.67;14.15;;;9.70;99.90;;;;;;5048942;28;20076;-83
2021/05/15 06:29:02;;;;;;;29.90;14.07;;;9.70;99.90;;;;;;5047191;28;20032;-83
2021/05/15 06:31:28;;;;;;;32.65;14.55;;;9.70;99.90;;;;;;5039780;28;20037;-83
2021/05/15 06:33:53;;;;;;;25.52;13.20;;;9.60;99.90;;;;;;5049058;28;20041;-83
2021/05/15 06:36:19;;;;;;;26.33;14.20;;;9.60;99.90;;;;;;5046819;28;20146;-82
2021/05/15 06:38:45;;;;;;;27.25;13.55;;;9.60;99.90;;;;;;5045465;28;20029;-82
2021/05/15 06:41:10;;;;;;;34.28;15.18;;;9.60;99.90;;;;;;5042968;28;20480;-82
2021/05/15 06:43:37;;;;;;;28.95;13.85;;;9.60;99.90;;;;;;5054516;28;20186;-83
2021/05/15 06:46:03;;;;;;;33.90;14.50;;;9.60;99.90;;;;;;5061624;28;20047;-84
2021/05/15 06:48:28;;;;;;;29.02;14.15;;;9.60;99.90;;;;;;5049268;28;20041;-84
2021/05/15 06:50:54;;;;;;;32.30;13.93;;;9.50;99.90;;;;;;5049139;28;20037;-84
2021/05/15 06:53:20;;;;;;;33.80;13.93;;;9.50;99.90;;;;;;5048965;28;20120;-84
2021/05/15 06:55:46;;;;;;;36.88;15.07;;;9.60;99.90;;;;;;5051300;28;20085;-84
2021/05/15 06:58:13;;;;;;;33.75;14.77;;;9.60;99.90;;;;;;5047415;28;20044;-84
2021/05/15 07:00:39;;;;;;;34.38;15.25;;;9.60;99.90;;;;;;5051847;28;20095;-84
2021/05/15 07:03:05;;;;;;;29.88;14.85;;;9.60;99.90;;;;;;5050514;28;20053;-84
2021/05/15 07:05:31;;;;;;;33.13;15.07;;;9.60;99.90;;;;;;5052070;28;20128;-84
2021/05/15 07:07:56;;;;;;;32.00;15.23;;;9.70;99.90;;;;;;5051772;28;20106;-84
2021/05/15 07:10:22;;;;;;;38.88;16.25;;;9.70;99.90;;;;;;5050019;28;20052;-85
2021/05/15 07:12:47;;;;;;;31.45;14.52;;;9.80;99.90;;;;;;5048118;28;20041;-84
2021/05/15 07:15:13;;;;;;;29.48;14.45;;;10.00;99.90;;;;;;5045162;28;20044;-84
2021/05/15 07:17:42;;;;;;;30.95;14.88;;;10.00;99.90;;;;;;5050011;28;20064;-84
2021/05/15 07:20:08;;;;;;;34.92;13.82;;;10.10;99.90;;;;;;5036525;28;20033;-84
2021/05/15 07:22:35;;;;;;;33.90;15.13;;;10.10;99.90;;;;;;5050180;28;20057;-84
2021/05/15 07:25:00;;;;;;;34.85;15.60;;;10.10;99.90;;;;;;5058920;28;20423;-85
2021/05/15 07:27:28;;;;;;;27.27;14.15;;;10.10;99.90;;;;;;5064407;28;20045;-85
2021/05/15 07:29:55;;;;;;;40.53;15.20;;;10.10;99.90;;;;;;5065317;28;20032;-85
2021/05/15 07:32:22;;;;;;;32.50;15.38;;;10.00;99.90;;;;;;5068592;28;20093;-85
2021/05/15 07:34:47;;;;;;;30.30;14.32;;;10.00;99.90;;;;;;5066044;28;20167;-85
2021/05/15 07:37:14;;;;;;;35.20;15.73;;;9.90;99.90;;;;;;5048050;28;20539;-83
2021/05/15 07:39:40;;;;;;;37.63;16.13;;;9.90;99.90;;;;;;5050792;28;20033;-84
2021/05/15 07:42:06;;;;;;;38.33;16.92;;;10.00;99.90;;;;;;5065018;28;20033;-84
2021/05/15 07:44:32;;;;;;;33.25;15.75;;;10.00;99.90;;;;;;5054386;28;20032;-84
2021/05/15 07:46:58;;;;;;;34.03;16.65;;;10.10;99.90;;;;;;5048232;28;20037;-84
2021/05/15 07:49:24;;;;;;;35.97;18.20;;;10.10;99.90;;;;;;5052193;28;20071;-84
2021/05/15 07:51:50;;;;;;;40.58;19.02;;;10.20;99.90;;;;;;5046283;28;20033;-83
2021/05/15 07:54:16;;;;;;;35.75;17.55;;;10.40;99.90;;;;;;5055506;28;20067;-83
2021/05/15 07:56:42;;;;;;;40.33;18.42;;;10.60;99.90;;;;;;5048027;28;20037;-84
2021/05/15 07:59:07;;;;;;;35.00;17.27;;;10.70;99.90;;;;;;5046505;28;20039;-83
2021/05/15 08:01:33;;;;;;;35.25;17.65;;;10.80;99.90;;;;;;5046834;28;20060;-83
2021/05/15 08:03:59;;;;;;;39.33;18.23;;;10.90;99.90;;;;;;5048792;28;20481;-84
2021/05/15 08:06:25;;;;;;;38.08;18.52;;;10.90;99.90;;;;;;5052794;28;20037;-85
2021/05/15 08:08:50;;;;;;;43.47;18.90;;;11.00;99.90;;;;;;5052331;28;20029;-84
2021/05/15 08:11:19;;;;;;;38.30;17.50;;;10.90;99.90;;;;;;5049002;28;20048;-83
2021/05/15 08:13:45;;;;;;;38.78;18.23;;;11.00;99.90;;;;;;5050402;28;20075;-87
2021/05/15 08:16:15;;;;;;;37.35;19.55;;;11.10;99.90;;;;;;5063294;28;20361;-87
2021/05/15 08:18:41;;;;;;;44.40;19.77;;;11.30;99.90;;;;;;5049366;28;20033;-87
2021/05/15 08:21:08;;;;;;;36.90;18.90;;;11.30;99.90;;;;;;5048813;28;20511;-87
2021/05/15 08:23:37;;;;;;;36.92;19.73;;;11.40;99.90;;;;;;5049521;28;20116;-87
2021/05/15 08:26:12;;;;;;;41.03;20.33;;;11.50;99.90;;;;;;5063981;28;20052;-86
2021/05/15 08:28:46;;;;;;;40.35;19.05;;;11.60;99.90;;;;;;5048642;28;20041;-87
2021/05/15 08:31:11;;;;;;;39.10;19.10;;;11.60;99.90;;;;;;5058002;28;20036;-86
2021/05/15 08:33:37;;;;;;;39.05;19.10;;;11.70;99.90;;;;;;5063547;28;20023;-86
2021/05/15 08:36:05;;;;;;;38.78;19.77;;;11.80;99.90;;;;;;5044761;28;20020;-88
2021/05/15 08:38:32;;;;;;;44.67;21.02;;;11.90;99.90;;;;;;5060713;28;20036;-87
2021/05/15 08:40:57;;;;;;;47.20;21.23;;;11.90;99.90;;;;;;5077865;28;20040;-87
2021/05/15 08:43:26;;;;;;;42.42;19.52;;;12.00;99.90;;;;;;5056859;28;20045;-86
2021/05/15 08:45:55;;;;;;;37.17;19.90;;;12.10;99.90;;;;;;5058316;28;20062;-87
2021/05/15 08:48:21;;;;;;;32.65;18.85;;;12.30;99.90;;;;;;5034000;28;20056;-87
2021/05/15 08:50:48;;;;;;;38.90;19.75;;;12.50;99.90;;;;;;5048189;28;20034;-87
2021/05/15 08:53:14;;;;;;;32.80;19.40;;;12.70;99.90;;;;;;5036714;28;20557;-87
2021/05/15 08:55:44;;;;;;;30.38;18.27;;;12.90;99.90;;;;;;5045603;28;20029;-87
2021/05/15 08:58:09;;;;;;;34.90;19.40;;;13.20;99.90;;;;;;5035205;28;20041;-87
2021/05/15 09:00:38;;;;;;;33.58;19.27;;;13.40;99.90;;;;;;5062437;28;20032;-87
2021/05/15 09:03:10;;;;;;;35.90;19.58;;;13.60;99.90;;;;;;5053064;28;20045;-87
2021/05/15 09:05:40;;;;;;;33.17;19.83;;;13.60;99.90;;;;;;5046003;28;20087;-88
2021/05/15 09:08:11;;;;;;;34.85;19.85;;;13.40;99.90;;;;;;5050219;28;20053;-87
2021/05/15 09:10:40;;;;;;;40.33;20.70;;;13.10;99.90;;;;;;5037649;28;20056;-88
2021/05/15 09:13:15;;;;;;;33.40;20.17;;;12.90;99.90;;;;;;5054348;28;20488;-86
2021/05/15 09:15:44;;;;;;;29.80;17.55;;;12.70;99.90;;;;;;5050823;28;20066;-87
2021/05/15 09:18:29;;;;;;;31.25;18.67;;;12.60;99.90;;;;;;5058493;28;20043;-87
2021/05/15 09:20:58;;;;;;;28.25;18.23;;;12.60;99.90;;;;;;5035047;28;20514;-86
2021/05/15 09:26:16;;;;;;;29.33;17.65;;;12.60;99.90;;;;;;5055570;27;20348;-81
2021/05/15 09:28:47;;;;;;;30.02;17.58;;;13.00;99.90;;;;;;5017410;28;20104;-82
2021/05/15 09:31:59;;;;;;;27.92;17.55;;;13.20;99.90;;;;;;5049102;28;20061;-81
2021/05/15 09:34:29;;;;;;;28.52;17.35;;;13.40;99.90;;;;;;5036666;28;20045;-82
2021/05/15 09:36:56;;;;;;;42.38;19.75;;;13.50;99.90;;;;;;5039634;28;20142;-83
2021/05/15 09:39:25;;;;;;;36.42;18.92;;;13.60;99.90;;;;;;5010928;28;20511;-84
2021/05/15 09:41:54;;;;;;;32.22;18.73;;;13.60;99.90;;;;;;5025431;28;20068;-82
2021/05/15 09:44:29;;;;;;;33.30;19.50;;;13.50;99.90;;;;;;5038390;28;20060;-83
2021/05/15 09:46:57;;;;;;;34.00;20.42;;;13.40;99.90;;;;;;5030754;28;20054;-83
2021/05/15 09:49:37;;;;;;;38.95;21.50;;;13.40;99.90;;;;;;5020198;28;20081;-83
2021/05/15 09:52:06;;;;;;;34.85;20.98;;;13.30;99.90;;;;;;5027904;28;20057;-83
2021/05/15 09:54:45;;;;;;;33.65;21.73;;;13.20;99.90;;;;;;5006066;28;20069;-83
2021/05/15 09:57:15;;;;;;;34.47;20.80;;;13.10;99.90;;;;;;5027566;28;20044;-83
2021/05/15 09:59:45;;;;;;;34.53;20.30;;;13.10;99.90;;;;;;5005935;28;20049;-84
2021/05/15 10:02:18;;;;;;;33.15;20.23;;;13.20;99.90;;;;;;5030376;28;20132;-84
2021/05/15 10:04:47;;;;;;;29.63;18.33;;;13.40;99.90;;;;;;5028641;28;20077;-83
2021/05/15 10:07:25;;;;;;;31.63;18.52;;;13.80;99.90;;;;;;4998513;28;20057;-85
2021/05/15 10:09:53;;;;;;;28.13;17.88;;;14.00;99.90;;;;;;5030073;28;20132;-84
2021/05/15 10:12:24;;;;;;;30.38;18.23;;;14.30;99.90;;;;;;5014146;28;20085;-82
2021/05/15 10:14:51;;;;;;;27.20;17.65;;;14.50;99.90;;;;;;5008586;28;20076;-84
2021/05/15 10:17:18;;;;;;;26.13;15.93;;;14.70;99.90;;;;;;5023181;28;20041;-85
2021/05/15 10:19:46;;;;;;;26.55;16.15;;;15.10;99.90;;;;;;5019496;28;20902;-84
2021/05/15 10:22:12;;;;;;;24.73;16.00;;;15.50;99.90;;;;;;5021679;28;20068;-83
2021/05/15 10:24:47;;;;;;;23.67;15.13;;;15.90;99.90;;;;;;5027906;28;20049;-82
2021/05/15 10:27:20;;;;;;;22.90;15.80;;;15.90;99.90;;;;;;5012769;28;20087;-83
2021/05/15 10:29:54;;;;;;;25.65;16.67;;;15.70;99.90;;;;;;5028360;28;20053;-84
2021/05/15 10:32:22;;;;;;;24.13;16.48;;;15.60;99.90;;;;;;5015383;28;20057;-83
2021/05/15 10:34:59;;;;;;;24.98;16.38;;;15.60;99.90;;;;;;5022863;28;20053;-84
2021/05/15 10:37:29;;;;;;;23.17;16.65;;;15.70;99.90;;;;;;5007571;28;20049;-85
2021/05/15 10:39:55;;;;;;;29.40;16.95;;;15.80;99.90;;;;;;5015268;28;20078;-85
2021/05/15 10:42:33;;;;;;;25.90;16.05;;;15.90;99.90;;;;;;5002577;28;20050;-84
2021/05/15 10:45:01;;;;;;;23.35;15.52;;;16.00;99.90;;;;;;5023536;28;20060;-84
2021/05/15 10:47:39;;;;;;;20.83;15.18;;;16.10;99.90;;;;;;5039772;28;20049;-86
2021/05/15 10:50:20;;;;;;;23.27;14.98;;;16.30;99.90;;;;;;5031533;28;20099;-85
2021/05/15 10:52:50;;;;;;;20.58;14.98;;;16.50;99.90;;;;;;5022849;28;20427;-84
2021/05/15 10:55:32;;;;;;;23.85;15.02;;;16.50;99.90;;;;;;5015999;28;20052;-84
2021/05/15 10:58:13;;;;;;;22.20;14.32;;;16.30;99.90;;;;;;5000595;28;20045;-84
2021/05/15 11:00:40;;;;;;;18.10;13.73;;;16.10;99.90;;;;;;5001782;28;20050;-84
2021/05/15 11:03:08;;;;;;;20.15;13.15;;;16.20;99.90;;;;;;4999186;28;20093;-83
2021/05/15 11:05:46;;;;;;;18.10;12.73;;;16.60;99.90;;;;;;5002658;28;20042;-83
2021/05/15 11:08:25;;;;;;;22.88;13.57;;;17.10;99.90;;;;;;5017972;28;20072;-84
2021/05/15 11:10:53;;;;;;;19.33;13.20;;;17.40;99.90;;;;;;5009510;28;20077;-83
2021/05/15 11:13:22;;;;;;;20.27;14.98;;;17.40;99.90;;;;;;5025058;28;20053;-83
2021/05/15 11:15:51;;;;;;;19.77;13.50;;;17.40;99.90;;;;;;5044303;28;20056;-83
2021/05/15 11:18:32;;;;;;;17.55;12.15;;;17.50;99.90;;;;;;4984173;28;20076;-84
2021/05/15 11:21:36;;;;;;;;;;;;;;;;;;;;;
2021/05/15 11:23:59;;;;;;;16.77;11.23;;;17.90;99.90;;;;;;4988086;28;20592;-84
2021/05/15 11:26:38;;;;;;;19.30;12.02;;;18.30;99.10;;;;;;5003109;28;20073;-84
2021/05/15 11:29:06;;;;;;;17.00;11.75;;;18.50;98.60;;;;;;5027434;28;20127;-84
2021/05/15 11:31:39;;;;;;;17.65;11.38;;;18.70;98.80;;;;;;5024065;28;20057;-82
2021/05/15 11:34:10;;;;;;;15.68;11.80;;;19.00;96.60;;;;;;5021921;28;20064;-84
2021/05/15 11:36:40;;;;;;;15.82;11.20;;;19.40;96.90;;;;;;5037300;28;20491;-84
2021/05/15 11:39:10;;;;;;;15.98;11.55;;;19.90;93.20;;;;;;5023163;28;20061;-84
2021/05/15 11:41:38;;;;;;;15.95;11.82;;;20.40;93.30;;;;;;5014836;28;20481;-84
2021/05/15 11:44:05;;;;;;;14.88;11.23;;;20.90;91.30;;;;;;5022043;28;20081;-84
2021/05/15 11:46:38;;;;;;;15.77;10.70;;;21.40;87.80;;;;;;4998728;28;20462;-84
2021/05/15 11:49:05;;;;;;;18.05;11.43;;;21.60;84.00;;;;;;4998931;28;20139;-84
2021/05/15 11:51:32;;;;;;;14.43;11.63;;;21.70;77.30;;;;;;5018524;28;20428;-83
2021/05/15 11:54:11;;;;;;;14.38;9.77;;;21.50;72.90;;;;;;5025556;28;20058;-84
2021/05/15 11:56:42;;;;;;;11.45;9.48;;;21.00;75.00;;;;;;4997688;28;20124;-83
2021/05/15 11:59:09;;;;;;;12.30;9.73;;;20.80;74.30;;;;;;5000414;28;20608;-84
2021/05/15 12:01:36;;;;;;;13.30;10.52;;;21.30;81.90;;;;;;5016522;28;20074;-83
2021/05/15 12:04:16;;;;;;;16.48;10.43;;;21.80;70.90;;;;;;5012082;28;20077;-84
2021/05/15 12:06:51;;;;;;;17.77;11.05;;;21.40;69.20;;;;;;5000692;28;20060;-84
2021/05/15 12:09:19;;;;;;;14.40;10.48;;;21.30;75.70;;;;;;5017773;28;20048;-84
2021/05/15 12:11:48;;;;;;;15.48;11.10;;;21.60;70.80;;;;;;5017866;28;20053;-84
2021/05/15 12:14:19;;;;;;;15.38;9.50;;;21.60;70.50;;;;;;4963251;28;20115;-84
2021/05/15 12:16:46;;;;;;;14.30;10.60;;;21.20;68.50;;;;;;4995276;28;20053;-84
2021/05/15 12:19:27;;;;;;;14.25;11.43;;;20.70;73.00;;;;;;5028694;28;20106;-83
2021/05/15 12:22:13;;;;;;;15.63;11.18;;;20.30;76.00;;;;;;5004654;28;20076;-84
2021/05/15 12:24:44;;;;;;;15.52;10.60;;;19.80;76.00;;;;;;4990896;28;20092;-83
2021/05/15 12:27:22;;;;;;;17.00;11.18;;;19.30;76.60;;;;;;4985403;28;20051;-83
2021/05/15 12:30:07;;;;;;;16.27;11.35;;;18.90;76.70;;;;;;4977339;28;20130;-83
2021/05/15 12:32:38;;;;;;;17.02;10.85;;;18.60;80.90;;;;;;5001450;28;20052;-83
2021/05/15 12:35:24;;;;;;;;;;;;;;;;;;;;;
2021/05/15 12:37:58;;;;;;;15.50;10.60;;;18.70;81.90;;;;;;4906503;28;20043;-83
2021/05/15 12:40:32;;;;;;;15.13;10.57;;;18.90;79.50;;;;;;4970513;28;20065;-84
2021/05/15 12:43:21;;;;;;;15.45;10.70;;;19.00;82.00;;;;;;4965611;28;20073;-84
2021/05/15 12:46:18;;;;;;;16.75;10.38;;;19.10;80.20;;;;;;4960703;28;20046;-86
2021/05/15 12:48:56;;;;;;;17.83;11.60;;;19.20;80.60;;;;;;4976759;28;20094;-84